MDT,Max TemperatureF,Mean TemperatureF,Min TemperatureF,Max Dew PointF,MeanDew PointF,Min DewpointF,Max Humidity, Mean Humidity, Min Humidity, Max Sea Level PressureIn, Mean Sea Level PressureIn, Min Sea Level PressureIn, Max VisibilityMiles, Mean VisibilityMiles, Min VisibilityMiles, Max Wind SpeedMPH, Mean Wind SpeedMPH, Max Gust SpeedMPH,PrecipitationIn, CloudCover, Events, WindDirDegrees
2012-10-1,63,52,38,43,39,35,87,63,36,30.19,30.11,30.03,10,10,10,20,11,26,0.00,3,,351
2012-10-2,76,55,34,41,30,20,91,50,12,30.04,29.87,29.76,10,10,10,12,7,,0.00,0,,8
2012-10-3,79,59,36,32,24,11,74,33,8,30.05,29.79,29.66,10,10,9,29,11,44,0.00,0,,357
2012-10-4,49,38,27,27,24,21,75,55,40,30.28,30.18,30.08,10,10,10,23,13,28,0.00,1,Rain,137
2012-10-5,41,36,31,32,30,25,100,84,61,30.32,30.21,30.03,10,8,3,24,10,33,0.03,7,Rain-Snow,238
2012-10-6,39,32,28,32,28,22,100,88,65,30.35,30.26,30.20,10,8,1,20,7,24,0.01,8,Rain,148
2012-10-7,52,39,26,25,20,9,89,64,20,30.28,30.18,30.01,10,10,10,15,7,,0.00,4,,146
2012-10-8,66,45,24,20,14,0,80,37,10,30.09,29.89,29.72,10,10,10,13,7,26,0.00,0,,47
2012-10-9,63,50,37,34,25,2,81,47,12,30.13,29.90,29.71,10,10,10,15,10,29,0.00,2,,120
2012-10-10,60,48,37,35,33,32,87,67,38,30.21,30.03,29.86,10,10,7,13,8,,0.00,4,,165
2012-10-11,75,56,39,34,29,21,70,41,15,30.06,29.94,29.86,10,10,10,15,9,23,0.00,1,,26
2012-10-12,60,46,33,45,38,30,99,77,54,30.14,29.97,29.78,10,9,4,20,8,24,0.02,2,Rain-Thunderstorm,149
2012-10-13,54,47,40,41,31,19,83,56,33,30.01,29.80,29.69,10,10,10,28,13,38,0.01,2,Rain,353
2012-10-14,62,48,33,36,33,30,93,65,32,30.28,30.13,30.04,10,10,10,13,8,17,0.00,0,,12
2012-10-15,74,52,31,31,25,17,86,44,12,30.09,29.90,29.74,10,10,10,13,9,,0.00,0,,34
2012-10-16,75,58,42,36,23,17,45,27,11,29.75,29.57,29.40,10,10,10,16,7,24,0.00,1,Rain,336
2012-10-17,58,45,28,39,15,-6,85,39,7,29.94,29.65,29.52,10,10,10,28,14,43,0.01,1,Rain,352
2012-10-18,61,41,21,16,11,7,61,37,12,30.19,30.04,29.91,10,10,10,18,8,23,0.00,0,,4
2012-10-19,70,48,27,21,17,14,63,36,12,30.05,29.89,29.72,10,10,10,12,9,,0.00,0,,25
2012-10-20,75,58,42,16,11,4,34,18,6,29.76,29.63,29.52,10,10,10,16,6,23,0.00,0,,235
2012-10-21,73,56,40,25,13,4,53,18,9,29.73,29.62,29.54,10,10,10,16,11,25,0.00,0,,112
2012-10-22,68,49,31,32,28,25,80,50,20,29.89,29.70,29.59,10,10,10,22,9,26,0.00,0,,87
2012-10-23,74,58,41,31,22,16,65,28,11,29.65,29.58,29.52,10,10,10,25,9,41,0.00,0,,242
2012-10-24,57,43,30,36,31,27,93,79,37,29.90,29.78,29.50,10,8,2,28,16,37,0.17,5,Rain-Snow,350
2012-10-25,33,28,24,28,26,21,93,85,66,30.32,30.21,29.86,10,7,2,23,13,33,0.01,7,Snow,155
2012-10-26,38,30,24,27,24,19,100,88,51,30.49,30.36,30.25,10,9,3,18,11,,0.00,7,,139
2012-10-27,47,34,22,25,21,14,100,71,33,30.25,30.17,30.08,10,9,3,14,7,17,0.00,3,,132
2012-10-28,53,38,23,26,21,18,81,60,28,30.22,30.14,30.03,10,10,10,10,5,,0.00,0,,356
2012-10-29,65,48,30,29,25,20,78,49,18,30.16,30.07,29.96,10,10,10,12,6,,0.00,0,,27
2012-10-30,65,48,33,27,24,22,66,45,21,30.18,30.03,29.92,10,10,10,10,8,,0.00,0,,33
2012-10-31,68,50,32,27,22,13,68,42,12,30.20,30.03,29.94,10,10,10,10,7,,0.00,0,,11